Stevensville, MD

4:02 AM EST on December 29, 2014 (GMT -0500)
Easton / Newnam | Change Station
CLOSE
Current Station
Airport
Location: Easton,
Elevation: 72 ft
Nearby Weather Stations

Elev 72 ft 38.80 °N, 76.07 °W | Updated -712 second ago

Rain
Rain
43 °F
Feels Like 41 °F
N
4
Wind Variable Wind from North

Today
High -- | Low -- °F
--% Chance of Precip.
Yesterday
High -- | Low -- °F
Precip. -- in
7:23 AM 4:51 PM
First Quarter, 57% visible
Pressure 30.18 in
Visibility 10.0 miles
Clouds Overcast 3800 ft
Windchill 41 °F
Dew Point 43 °F
Humidity 100%
Rainfall 0.03 in
Snow Depth Not available.
UV 0 out of 12
Pollen .10 out of 12
Air Quality Not available.
Flu Activity Not available.
METAR KESN 290914Z AUTO 36003KT 10SM DZ OVC038 06/06 A3018 RMK AO2 T00610061

More Conditions Fewer Conditions

Pressure 30.18 in
Visibility 10.0 miles
Clouds Overcast 3800 ft
Windchill 41 °F
Dew Point 43 °F
Humidity 100%
Rainfall 0.03 in
Snow Depth Not available.
UV 0 out of 12
Pollen .10 out of 12
Air Quality Not available.
Flu Activity Not available.
METAR KESN 290914Z AUTO 36003KT 10SM DZ OVC038 06/06 A3018 RMK AO2 T00610061

More Conditions Fewer Conditions

10-Day Weather Forecast

Almanac

Astronomy

Dec. 29, 2014 Rise Set
Actual Time
Civil Twilight
Nautical Twilight
Astronomical Twilight
Moon
Length of Visible Light
Length of Day
Tomorrow will be .
, % of the Moon is Illuminated

Today's Extremes

State Highs State Lows

Community

WunderPhotos

Upload Photos

1,781,559 photos uploaded!

WunderBlogs® & News

Nearby

Air Quality

  Air Quality AQ Index Pollutant
Not available.

Snow Depth

Station Depth Elevation

Earthquake Activity

City Distance Mag. Time & Date
Minimum magnitude displayed is 2.5.

Coastal Water Temperatures

Place Temperature

Nearby Weather Stations